sensor_id;sensor_type;location;lat;lon;timestamp;P1;durP1;ratioP1;P2;durP2;ratioP2
4001;SDS011;2015;48.670;9.060;2024-03-22T00:02:13;16.13;;;12.47;;
4001;SDS011;2015;48.670;9.060;2024-03-22T00:04:44;18.40;;;12.10;;
4001;SDS011;2015;48.670;9.060;2024-03-22T00:07:15;13.40;;;10.93;;
4001;SDS011;2015;48.670;9.060;2024-03-22T00:09:46;15.27;;;11.20;;
4001;SDS011;2015;48.670;9.060;2024-03-22T00:12:16;16.40;;;12.30;;
4001;SDS011;2015;48.670;9.060;2024-03-22T00:14:47;15.87;;;11.87;;
4001;SDS011;2015;48.670;9.060;2024-03-22T00:17:18;16.02;;;12.20;;
4001;SDS011;2015;48.670;9.060;2024-03-22T00:19:49;15.80;;;11.20;;
4001;SDS011;2015;48.670;9.060;2024-03-22T00:22:20;13.80;;;10.90;;
4001;SDS011;2015;48.670;9.060;2024-03-22T00:24:50;15.33;;;10.53;;
4001;SDS011;2015;48.670;9.060;2024-03-22T00:27:21;13.57;;;11.00;;
4001;SDS011;2015;48.670;9.060;2024-03-22T00:29:52;19.20;;;10.50;;
4001;SDS011;2015;48.670;9.060;2024-03-22T00:32:23;13.80;;;10.73;;
4001;SDS011;2015;48.670;9.060;2024-03-22T00:34:53;14.10;;;9.60;;
4001;SDS011;2015;48.670;9.060;2024-03-22T00:37:24;18.83;;;12.77;;
4001;SDS011;2015;48.670;9.060;2024-03-22T00:39:55;14.83;;;11.57;;
4001;SDS011;2015;48.670;9.060;2024-03-22T00:42:26;12.50;;;9.27;;
4001;SDS011;2015;48.670;9.060;2024-03-22T00:44:56;13.30;;;9.60;;
4001;SDS011;2015;48.670;9.060;2024-03-22T00:47:28;14.40;;;9.53;;
4001;SDS011;2015;48.670;9.060;2024-03-22T00:49:58;15.00;;;11.60;;
4001;SDS011;2015;48.670;9.060;2024-03-22T00:52:29;21.70;;;11.20;;
4001;SDS011;2015;48.670;9.060;2024-03-22T00:55:00;9.37;;;8.23;;
4001;SDS011;2015;48.670;9.060;2024-03-22T00:57:31;14.83;;;10.33;;
4001;SDS011;2015;48.670;9.060;2024-03-22T01:00:02;9.10;;;8.20;;
4001;SDS011;2015;48.670;9.060;2024-03-22T01:02:34;13.70;;;8.60;;
4001;SDS011;2015;48.670;9.060;2024-03-22T01:05:05;12.07;;;9.40;;
4001;SDS011;2015;48.670;9.060;2024-03-22T01:07:41;14.53;;;10.50;;
4001;SDS011;2015;48.670;9.060;2024-03-22T01:10:12;16.27;;;9.70;;
4001;SDS011;2015;48.670;9.060;2024-03-22T01:12:43;15.00;;;10.75;;
4001;SDS011;2015;48.670;9.060;2024-03-22T01:15:13;11.70;;;9.53;;
4001;SDS011;2015;48.670;9.060;2024-03-22T01:17:44;11.73;;;10.27;;
4001;SDS011;2015;48.670;9.060;2024-03-22T01:20:15;10.63;;;9.50;;
4001;SDS011;2015;48.670;9.060;2024-03-22T01:22:46;19.50;;;10.17;;
4001;SDS011;2015;48.670;9.060;2024-03-22T01:25:17;10.37;;;9.27;;
4001;SDS011;2015;48.670;9.060;2024-03-22T01:27:47;13.50;;;9.93;;
4001;SDS011;2015;48.670;9.060;2024-03-22T01:30:18;25.13;;;11.97;;
4001;SDS011;2015;48.670;9.060;2024-03-22T01:32:49;11.27;;;8.43;;
4001;SDS011;2015;48.670;9.060;2024-03-22T01:35:20;8.73;;;7.87;;
4001;SDS011;2015;48.670;9.060;2024-03-22T01:37:51;11.47;;;8.93;;
4001;SDS011;2015;48.670;9.060;2024-03-22T01:40:21;10.63;;;8.20;;
4001;SDS011;2015;48.670;9.060;2024-03-22T01:42:53;12.93;;;9.90;;
4001;SDS011;2015;48.670;9.060;2024-03-22T01:45:25;9.50;;;8.37;;
4001;SDS011;2015;48.670;9.060;2024-03-22T01:48:01;11.07;;;7.60;;
4001;SDS011;2015;48.670;9.060;2024-03-22T01:50:34;11.40;;;9.30;;
4001;SDS011;2015;48.670;9.060;2024-03-22T01:53:05;10.90;;;8.97;;
4001;SDS011;2015;48.670;9.060;2024-03-22T01:55:36;9.67;;;8.10;;
4001;SDS011;2015;48.670;9.060;2024-03-22T01:58:07;11.57;;;8.63;;
4001;SDS011;2015;48.670;9.060;2024-03-22T02:00:38;12.40;;;9.80;;
4001;SDS011;2015;48.670;9.060;2024-03-22T02:03:09;12.70;;;8.77;;
4001;SDS011;2015;48.670;9.060;2024-03-22T02:05:40;9.53;;;7.90;;
4001;SDS011;2015;48.670;9.060;2024-03-22T02:08:11;11.80;;;9.13;;
4001;SDS011;2015;48.670;9.060;2024-03-22T02:10:42;14.67;;;9.77;;
4001;SDS011;2015;48.670;9.060;2024-03-22T02:13:13;15.43;;;8.90;;
4001;SDS011;2015;48.670;9.060;2024-03-22T02:15:44;14.07;;;9.90;;
4001;SDS011;2015;48.670;9.060;2024-03-22T02:18:15;14.10;;;10.07;;
4001;SDS011;2015;48.670;9.060;2024-03-22T02:20:45;14.13;;;10.33;;
4001;SDS011;2015;48.670;9.060;2024-03-22T02:23:16;14.50;;;10.17;;
4001;SDS011;2015;48.670;9.060;2024-03-22T02:25:47;15.83;;;10.40;;
4001;SDS011;2015;48.670;9.060;2024-03-22T02:28:18;14.70;;;9.67;;
4001;SDS011;2015;48.670;9.060;2024-03-22T02:30:48;22.20;;;12.87;;
4001;SDS011;2015;48.670;9.060;2024-03-22T02:33:19;15.83;;;10.73;;
4001;SDS011;2015;48.670;9.060;2024-03-22T02:35:50;12.20;;;10.87;;
4001;SDS011;2015;48.670;9.060;2024-03-22T02:38:21;19.43;;;13.27;;
4001;SDS011;2015;48.670;9.060;2024-03-22T02:40:52;14.03;;;10.77;;
4001;SDS011;2015;48.670;9.060;2024-03-22T02:43:23;12.90;;;10.10;;
4001;SDS011;2015;48.670;9.060;2024-03-22T02:45:54;12.27;;;8.60;;
4001;SDS011;2015;48.670;9.060;2024-03-22T02:48:25;20.70;;;10.77;;
4001;SDS011;2015;48.670;9.060;2024-03-22T02:50:56;12.07;;;9.00;;
4001;SDS011;2015;48.670;9.060;2024-03-22T02:53:27;17.77;;;10.20;;
4001;SDS011;2015;48.670;9.060;2024-03-22T02:55:59;15.50;;;11.50;;
4001;SDS011;2015;48.670;9.060;2024-03-22T02:58:31;14.10;;;10.10;;
4001;SDS011;2015;48.670;9.060;2024-03-22T03:01:01;18.13;;;10.73;;
4001;SDS011;2015;48.670;9.060;2024-03-22T03:03:33;18.17;;;10.70;;
4001;SDS011;2015;48.670;9.060;2024-03-22T03:06:04;14.03;;;10.30;;
4001;SDS011;2015;48.670;9.060;2024-03-22T03:08:35;15.83;;;10.77;;
4001;SDS011;2015;48.670;9.060;2024-03-22T03:11:06;21.00;;;11.27;;
4001;SDS011;2015;48.670;9.060;2024-03-22T03:13:37;16.87;;;11.70;;
4001;SDS011;2015;48.670;9.060;2024-03-22T03:16:08;15.53;;;10.43;;
4001;SDS011;2015;48.670;9.060;2024-03-22T03:18:38;18.13;;;10.90;;
4001;SDS011;2015;48.670;9.060;2024-03-22T03:21:09;19.30;;;10.70;;
4001;SDS011;2015;48.670;9.060;2024-03-22T03:23:40;16.50;;;11.60;;
4001;SDS011;2015;48.670;9.060;2024-03-22T03:26:11;20.77;;;11.97;;
4001;SDS011;2015;48.670;9.060;2024-03-22T03:28:42;14.40;;;10.53;;
4001;SDS011;2015;48.670;9.060;2024-03-22T03:31:12;16.23;;;12.18;;
4001;SDS011;2015;48.670;9.060;2024-03-22T03:33:43;16.20;;;11.73;;
4001;SDS011;2015;48.670;9.060;2024-03-22T03:36:14;16.30;;;11.67;;
4001;SDS011;2015;48.670;9.060;2024-03-22T03:38:45;18.60;;;11.97;;
4001;SDS011;2015;48.670;9.060;2024-03-22T03:41:15;18.57;;;9.80;;
4001;SDS011;2015;48.670;9.060;2024-03-22T03:43:46;18.30;;;11.50;;
4001;SDS011;2015;48.670;9.060;2024-03-22T03:46:17;15.87;;;11.60;;
4001;SDS011;2015;48.670;9.060;2024-03-22T03:48:48;12.53;;;10.17;;
4001;SDS011;2015;48.670;9.060;2024-03-22T03:51:19;18.80;;;12.00;;
4001;SDS011;2015;48.670;9.060;2024-03-22T03:53:49;13.93;;;9.67;;
4001;SDS011;2015;48.670;9.060;2024-03-22T03:56:20;12.73;;;10.00;;
4001;SDS011;2015;48.670;9.060;2024-03-22T03:58:51;15.67;;;11.10;;
4001;SDS011;2015;48.670;9.060;2024-03-22T04:01:23;16.30;;;8.90;;
4001;SDS011;2015;48.670;9.060;2024-03-22T04:03:54;18.53;;;10.60;;
4001;SDS011;2015;48.670;9.060;2024-03-22T04:06:25;11.80;;;10.20;;
4001;SDS011;2015;48.670;9.060;2024-03-22T04:08:56;14.13;;;11.17;;
4001;SDS011;2015;48.670;9.060;2024-03-22T04:11:27;21.00;;;10.60;;
4001;SDS011;2015;48.670;9.060;2024-03-22T04:13:58;16.80;;;10.97;;
4001;SDS011;2015;48.670;9.060;2024-03-22T04:16:29;11.20;;;9.20;;
4001;SDS011;2015;48.670;9.060;2024-03-22T04:19:00;17.93;;;11.33;;
4001;SDS011;2015;48.670;9.060;2024-03-22T04:21:30;15.60;;;10.80;;
4001;SDS011;2015;48.670;9.060;2024-03-22T04:24:01;17.10;;;11.10;;
4001;SDS011;2015;48.670;9.060;2024-03-22T04:26:32;12.00;;;9.83;;
4001;SDS011;2015;48.670;9.060;2024-03-22T04:29:03;17.97;;;12.40;;
4001;SDS011;2015;48.670;9.060;2024-03-22T04:31:33;13.33;;;10.37;;
4001;SDS011;2015;48.670;9.060;2024-03-22T04:34:04;16.60;;;10.80;;
4001;SDS011;2015;48.670;9.060;2024-03-22T04:36:38;13.03;;;10.00;;
4001;SDS011;2015;48.670;9.060;2024-03-22T04:39:08;16.40;;;11.83;;
4001;SDS011;2015;48.670;9.060;2024-03-22T04:41:40;16.90;;;11.03;;
4001;SDS011;2015;48.670;9.060;2024-03-22T04:44:10;14.27;;;8.70;;
4001;SDS011;2015;48.670;9.060;2024-03-22T04:46:41;17.40;;;10.73;;
4001;SDS011;2015;48.670;9.060;2024-03-22T04:49:12;16.97;;;10.50;;
4001;SDS011;2015;48.670;9.060;2024-03-22T04:51:43;14.20;;;10.40;;
4001;SDS011;2015;48.670;9.060;2024-03-22T04:54:13;13.90;;;10.87;;
4001;SDS011;2015;48.670;9.060;2024-03-22T04:56:44;14.75;;;10.27;;
4001;SDS011;2015;48.670;9.060;2024-03-22T04:59:15;14.07;;;9.80;;
4001;SDS011;2015;48.670;9.060;2024-03-22T05:01:46;14.53;;;10.30;;
4001;SDS011;2015;48.670;9.060;2024-03-22T05:04:16;10.33;;;8.40;;
4001;SDS011;2015;48.670;9.060;2024-03-22T05:06:47;14.70;;;9.40;;
4001;SDS011;2015;48.670;9.060;2024-03-22T05:09:18;13.40;;;9.70;;
4001;SDS011;2015;48.670;9.060;2024-03-22T05:11:49;13.23;;;10.30;;
4001;SDS011;2015;48.670;9.060;2024-03-22T05:14:21;10.60;;;8.60;;
4001;SDS011;2015;48.670;9.060;2024-03-22T05:16:52;11.02;;;8.40;;
4001;SDS011;2015;48.670;9.060;2024-03-22T05:19:22;11.50;;;9.67;;
4001;SDS011;2015;48.670;9.060;2024-03-22T05:21:54;8.50;;;7.80;;
4001;SDS011;2015;48.670;9.060;2024-03-22T05:24:24;11.17;;;10.10;;
4001;SDS011;2015;48.670;9.060;2024-03-22T05:26:56;13.37;;;8.60;;
4001;SDS011;2015;48.670;9.060;2024-03-22T05:29:26;14.20;;;9.40;;
4001;SDS011;2015;48.670;9.060;2024-03-22T05:31:57;10.57;;;8.33;;
4001;SDS011;2015;48.670;9.060;2024-03-22T05:34:28;14.50;;;8.90;;
4001;SDS011;2015;48.670;9.060;2024-03-22T05:36:58;10.10;;;9.10;;
4001;SDS011;2015;48.670;9.060;2024-03-22T05:39:29;9.87;;;8.23;;
4001;SDS011;2015;48.670;9.060;2024-03-22T05:42:00;14.90;;;10.13;;
4001;SDS011;2015;48.670;9.060;2024-03-22T05:44:31;15.50;;;9.07;;
4001;SDS011;2015;48.670;9.060;2024-03-22T05:47:02;11.50;;;9.23;;
4001;SDS011;2015;48.670;9.060;2024-03-22T05:49:33;18.33;;;9.10;;
4001;SDS011;2015;48.670;9.060;2024-03-22T05:52:03;13.17;;;9.40;;
4001;SDS011;2015;48.670;9.060;2024-03-22T05:54:34;13.00;;;9.83;;
4001;SDS011;2015;48.670;9.060;2024-03-22T05:57:06;9.27;;;8.37;;
4001;SDS011;2015;48.670;9.060;2024-03-22T05:59:37;11.27;;;9.20;;
4001;SDS011;2015;48.670;9.060;2024-03-22T06:02:08;19.93;;;14.73;;
4001;SDS011;2015;48.670;9.060;2024-03-22T06:04:39;20.33;;;15.60;;
4001;SDS011;2015;48.670;9.060;2024-03-22T06:07:10;21.55;;;15.50;;
4001;SDS011;2015;48.670;9.060;2024-03-22T06:09:41;18.83;;;15.80;;
4001;SDS011;2015;48.670;9.060;2024-03-22T06:12:17;20.70;;;13.50;;
4001;SDS011;2015;48.670;9.060;2024-03-22T06:14:48;15.53;;;9.50;;
4001;SDS011;2015;48.670;9.060;2024-03-22T06:17:21;11.27;;;9.80;;
4001;SDS011;2015;48.670;9.060;2024-03-22T06:19:51;13.50;;;10.97;;
4001;SDS011;2015;48.670;9.060;2024-03-22T06:22:22;12.07;;;8.53;;
4001;SDS011;2015;48.670;9.060;2024-03-22T06:24:53;8.43;;;7.63;;
4001;SDS011;2015;48.670;9.060;2024-03-22T06:27:24;12.18;;;8.75;;
4001;SDS011;2015;48.670;9.060;2024-03-22T06:29:54;12.50;;;8.37;;
4001;SDS011;2015;48.670;9.060;2024-03-22T06:32:25;13.48;;;9.77;;
4001;SDS011;2015;48.670;9.060;2024-03-22T06:34:56;11.73;;;10.37;;
4001;SDS011;2015;48.670;9.060;2024-03-22T06:37:27;11.27;;;9.17;;
4001;SDS011;2015;48.670;9.060;2024-03-22T06:39:58;11.80;;;8.37;;
4001;SDS011;2015;48.670;9.060;2024-03-22T06:42:29;14.30;;;9.73;;
4001;SDS011;2015;48.670;9.060;2024-03-22T06:44:59;13.67;;;10.33;;
4001;SDS011;2015;48.670;9.060;2024-03-22T06:47:30;20.47;;;12.10;;
4001;SDS011;2015;48.670;9.060;2024-03-22T06:50:01;17.53;;;13.50;;
4001;SDS011;2015;48.670;9.060;2024-03-22T06:52:32;14.70;;;12.67;;
4001;SDS011;2015;48.670;9.060;2024-03-22T06:55:03;19.73;;;11.80;;
4001;SDS011;2015;48.670;9.060;2024-03-22T06:57:34;15.27;;;10.83;;
4001;SDS011;2015;48.670;9.060;2024-03-22T07:00:04;14.40;;;10.77;;
4001;SDS011;2015;48.670;9.060;2024-03-22T07:02:36;20.07;;;11.67;;
4001;SDS011;2015;48.670;9.060;2024-03-22T07:05:07;18.60;;;10.70;;
4001;SDS011;2015;48.670;9.060;2024-03-22T07:07:38;16.63;;;10.87;;
4001;SDS011;2015;48.670;9.060;2024-03-22T07:10:09;20.67;;;11.80;;
4001;SDS011;2015;48.670;9.060;2024-03-22T07:12:40;20.47;;;11.70;;
4001;SDS011;2015;48.670;9.060;2024-03-22T07:15:11;14.93;;;11.43;;
4001;SDS011;2015;48.670;9.060;2024-03-22T07:17:41;14.63;;;11.57;;
4001;SDS011;2015;48.670;9.060;2024-03-22T07:20:12;18.10;;;12.37;;
4001;SDS011;2015;48.670;9.060;2024-03-22T07:22:43;12.80;;;10.17;;
4001;SDS011;2015;48.670;9.060;2024-03-22T07:25:14;12.03;;;10.40;;
4001;SDS011;2015;48.670;9.060;2024-03-22T07:27:44;15.63;;;11.63;;
4001;SDS011;2015;48.670;9.060;2024-03-22T07:30:16;11.70;;;10.40;;
4001;SDS011;2015;48.670;9.060;2024-03-22T07:32:47;17.60;;;10.67;;
4001;SDS011;2015;48.670;9.060;2024-03-22T07:35:18;17.13;;;11.80;;
4001;SDS011;2015;48.670;9.060;2024-03-22T07:37:48;16.23;;;10.87;;
4001;SDS011;2015;48.670;9.060;2024-03-22T07:40:19;12.20;;;10.87;;
4001;SDS011;2015;48.670;9.060;2024-03-22T07:42:50;16.67;;;11.97;;
4001;SDS011;2015;48.670;9.060;2024-03-22T07:45:21;17.63;;;11.30;;
4001;SDS011;2015;48.670;9.060;2024-03-22T07:47:51;16.90;;;11.50;;
4001;SDS011;2015;48.670;9.060;2024-03-22T07:50:22;14.00;;;9.73;;
4001;SDS011;2015;48.670;9.060;2024-03-22T07:52:53;15.20;;;11.35;;
4001;SDS011;2015;48.670;9.060;2024-03-22T07:55:24;17.23;;;12.00;;
4001;SDS011;2015;48.670;9.060;2024-03-22T07:57:55;19.93;;;12.70;;
4001;SDS011;2015;48.670;9.060;2024-03-22T08:00:27;14.60;;;10.33;;
4001;SDS011;2015;48.670;9.060;2024-03-22T08:02:58;17.60;;;12.23;;
4001;SDS011;2015;48.670;9.060;2024-03-22T08:05:29;22.90;;;12.10;;
4001;SDS011;2015;48.670;9.060;2024-03-22T08:08:00;15.47;;;11.80;;
4001;SDS011;2015;48.670;9.060;2024-03-22T08:10:30;18.00;;;11.20;;
4001;SDS011;2015;48.670;9.060;2024-03-22T08:13:01;16.73;;;10.37;;
4001;SDS011;2015;48.670;9.060;2024-03-22T08:15:32;12.70;;;10.20;;
4001;SDS011;2015;48.670;9.060;2024-03-22T08:18:03;15.70;;;11.57;;
4001;SDS011;2015;48.670;9.060;2024-03-22T08:20:34;22.53;;;11.17;;
4001;SDS011;2015;48.670;9.060;2024-03-22T08:23:05;17.07;;;9.73;;
4001;SDS011;2015;48.670;9.060;2024-03-22T08:25:36;15.90;;;11.07;;
4001;SDS011;2015;48.670;9.060;2024-03-22T08:28:07;16.23;;;11.50;;
4001;SDS011;2015;48.670;9.060;2024-03-22T08:30:38;13.57;;;10.47;;
4001;SDS011;2015;48.670;9.060;2024-03-22T08:33:09;16.77;;;10.30;;
4001;SDS011;2015;48.670;9.060;2024-03-22T08:35:40;11.83;;;9.23;;
4001;SDS011;2015;48.670;9.060;2024-03-22T08:38:11;14.60;;;9.73;;
4001;SDS011;2015;48.670;9.060;2024-03-22T08:40:45;10.83;;;9.17;;
4001;SDS011;2015;48.670;9.060;2024-03-22T08:43:15;12.37;;;10.33;;
4001;SDS011;2015;48.670;9.060;2024-03-22T08:45:46;13.80;;;9.50;;
4001;SDS011;2015;48.670;9.060;2024-03-22T08:48:17;12.00;;;9.60;;
4001;SDS011;2015;48.670;9.060;2024-03-22T08:50:48;11.33;;;9.87;;
4001;SDS011;2015;48.670;9.060;2024-03-22T08:53:19;9.77;;;8.83;;
4001;SDS011;2015;48.670;9.060;2024-03-22T08:55:50;13.30;;;9.37;;
4001;SDS011;2015;48.670;9.060;2024-03-22T08:58:20;8.70;;;7.80;;
4001;SDS011;2015;48.670;9.060;2024-03-22T09:00:51;14.13;;;9.03;;
4001;SDS011;2015;48.670;9.060;2024-03-22T09:03:22;10.53;;;8.17;;
4001;SDS011;2015;48.670;9.060;2024-03-22T09:05:53;10.50;;;8.33;;
4001;SDS011;2015;48.670;9.060;2024-03-22T09:08:24;14.03;;;9.63;;
4001;SDS011;2015;48.670;9.060;2024-03-22T09:10:55;16.10;;;9.00;;
4001;SDS011;2015;48.670;9.060;2024-03-22T09:13:26;11.47;;;8.70;;
4001;SDS011;2015;48.670;9.060;2024-03-22T09:16:00;11.10;;;8.90;;
4001;SDS011;2015;48.670;9.060;2024-03-22T09:18:31;12.05;;;7.95;;
4001;SDS011;2015;48.670;9.060;2024-03-22T09:21:03;11.77;;;9.53;;
4001;SDS011;2015;48.670;9.060;2024-03-22T09:23:34;12.93;;;7.60;;
4001;SDS011;2015;48.670;9.060;2024-03-22T09:26:04;11.03;;;7.30;;
4001;SDS011;2015;48.670;9.060;2024-03-22T09:28:36;9.23;;;7.87;;
4001;SDS011;2015;48.670;9.060;2024-03-22T09:31:06;9.67;;;7.70;;
4001;SDS011;2015;48.670;9.060;2024-03-22T09:33:37;8.87;;;7.93;;
4001;SDS011;2015;48.670;9.060;2024-03-22T09:36:08;11.07;;;7.33;;
4001;SDS011;2015;48.670;9.060;2024-03-22T09:38:39;8.10;;;6.93;;
4001;SDS011;2015;48.670;9.060;2024-03-22T09:41:10;7.47;;;6.77;;
4001;SDS011;2015;48.670;9.060;2024-03-22T09:43:43;8.10;;;6.50;;
4001;SDS011;2015;48.670;9.060;2024-03-22T09:46:21;8.50;;;6.77;;
4001;SDS011;2015;48.670;9.060;2024-03-22T09:48:52;8.63;;;6.53;;
4001;SDS011;2015;48.670;9.060;2024-03-22T09:51:24;7.40;;;6.77;;
4001;SDS011;2015;48.670;9.060;2024-03-22T09:53:55;7.53;;;6.83;;
4001;SDS011;2015;48.670;9.060;2024-03-22T09:56:26;7.17;;;6.33;;
4001;SDS011;2015;48.670;9.060;2024-03-22T09:59:00;7.97;;;6.23;;
4001;SDS011;2015;48.670;9.060;2024-03-22T10:01:31;8.83;;;6.87;;
4001;SDS011;2015;48.670;9.060;2024-03-22T10:04:04;7.80;;;6.40;;
4001;SDS011;2015;48.670;9.060;2024-03-22T10:06:35;7.47;;;6.87;;
4001;SDS011;2015;48.670;9.060;2024-03-22T10:09:06;8.47;;;7.17;;
4001;SDS011;2015;48.670;9.060;2024-03-22T10:11:38;8.40;;;6.50;;
4001;SDS011;2015;48.670;9.060;2024-03-22T10:14:09;7.80;;;6.00;;
4001;SDS011;2015;48.670;9.060;2024-03-22T10:16:41;9.90;;;7.10;;
4001;SDS011;2015;48.670;9.060;2024-03-22T10:19:12;7.73;;;6.80;;
4001;SDS011;2015;48.670;9.060;2024-03-22T10:21:42;7.73;;;5.50;;
4001;SDS011;2015;48.670;9.060;2024-03-22T10:24:14;9.27;;;8.47;;
4001;SDS011;2015;48.670;9.060;2024-03-22T10:26:45;7.17;;;6.47;;
4001;SDS011;2015;48.670;9.060;2024-03-22T10:29:16;7.10;;;6.50;;
4001;SDS011;2015;48.670;9.060;2024-03-22T10:31:48;7.47;;;6.77;;
4001;SDS011;2015;48.670;9.060;2024-03-22T10:34:21;7.40;;;6.70;;
4001;SDS011;2015;48.670;9.060;2024-03-22T10:36:57;8.20;;;7.50;;
4001;SDS011;2015;48.670;9.060;2024-03-22T10:39:31;9.00;;;7.30;;
4001;SDS011;2015;48.670;9.060;2024-03-22T10:42:02;10.20;;;6.20;;
4001;SDS011;2015;48.670;9.060;2024-03-22T10:44:32;8.90;;;6.80;;
4001;SDS011;2015;48.670;9.060;2024-03-22T10:47:06;7.27;;;6.57;;
4001;SDS011;2015;48.670;9.060;2024-03-22T10:49:39;7.73;;;6.87;;
4001;SDS011;2015;48.670;9.060;2024-03-22T10:52:11;11.03;;;6.73;;
4001;SDS011;2015;48.670;9.060;2024-03-22T10:54:43;7.87;;;7.17;;
4001;SDS011;2015;48.670;9.060;2024-03-22T10:57:16;8.93;;;8.03;;
4001;SDS011;2015;48.670;9.060;2024-03-22T10:59:47;9.60;;;7.20;;
4001;SDS011;2015;48.670;9.060;2024-03-22T11:02:18;7.00;;;6.40;;
4001;SDS011;2015;48.670;9.060;2024-03-22T11:04:56;7.17;;;6.57;;
4001;SDS011;2015;48.670;9.060;2024-03-22T11:07:28;12.03;;;6.40;;
4001;SDS011;2015;48.670;9.060;2024-03-22T11:10:03;7.63;;;6.70;;
4001;SDS011;2015;48.670;9.060;2024-03-22T11:12:37;8.50;;;6.80;;
4001;SDS011;2015;48.670;9.060;2024-03-22T11:15:08;7.20;;;6.50;;
4001;SDS011;2015;48.670;9.060;2024-03-22T11:17:42;7.23;;;6.63;;
4001;SDS011;2015;48.670;9.060;2024-03-22T11:20:13;10.33;;;7.07;;
4001;SDS011;2015;48.670;9.060;2024-03-22T11:22:45;7.43;;;6.70;;
4001;SDS011;2015;48.670;9.060;2024-03-22T11:25:16;10.47;;;6.70;;
4001;SDS011;2015;48.670;9.060;2024-03-22T11:27:48;10.60;;;7.90;;
4001;SDS011;2015;48.670;9.060;2024-03-22T11:30:18;7.10;;;6.40;;
4001;SDS011;2015;48.670;9.060;2024-03-22T11:32:49;9.53;;;7.10;;
4001;SDS011;2015;48.670;9.060;2024-03-22T11:35:20;7.70;;;7.03;;
4001;SDS011;2015;48.670;9.060;2024-03-22T11:37:51;6.60;;;5.87;;
4001;SDS011;2015;48.670;9.060;2024-03-22T11:40:21;7.80;;;7.07;;
4001;SDS011;2015;48.670;9.060;2024-03-22T11:42:54;8.10;;;6.33;;
4001;SDS011;2015;48.670;9.060;2024-03-22T11:45:26;9.27;;;6.97;;
4001;SDS011;2015;48.670;9.060;2024-03-22T11:48:01;7.20;;;6.70;;
4001;SDS011;2015;48.670;9.060;2024-03-22T11:50:33;7.33;;;6.50;;
4001;SDS011;2015;48.670;9.060;2024-03-22T11:53:04;6.03;;;5.53;;
4001;SDS011;2015;48.670;9.060;2024-03-22T11:55:36;6.43;;;5.80;;
4001;SDS011;2015;48.670;9.060;2024-03-22T11:58:08;6.43;;;5.93;;
4001;SDS011;2015;48.670;9.060;2024-03-22T12:00:41;5.93;;;5.30;;
4001;SDS011;2015;48.670;9.060;2024-03-22T12:03:12;11.90;;;6.50;;
4001;SDS011;2015;48.670;9.060;2024-03-22T12:05:43;8.77;;;6.57;;
4001;SDS011;2015;48.670;9.060;2024-03-22T12:08:15;7.90;;;5.90;;
4001;SDS011;2015;48.670;9.060;2024-03-22T12:10:46;8.07;;;7.07;;
4001;SDS011;2015;48.670;9.060;2024-03-22T12:13:16;9.80;;;7.03;;
4001;SDS011;2015;48.670;9.060;2024-03-22T12:15:47;6.53;;;6.03;;
4001;SDS011;2015;48.670;9.060;2024-03-22T12:18:18;7.80;;;6.85;;
4001;SDS011;2015;48.670;9.060;2024-03-22T12:20:49;7.60;;;6.90;;
4001;SDS011;2015;48.670;9.060;2024-03-22T12:23:20;8.53;;;7.87;;
4001;SDS011;2015;48.670;9.060;2024-03-22T12:25:51;6.87;;;6.27;;
4001;SDS011;2015;48.670;9.060;2024-03-22T12:28:22;6.90;;;6.20;;
4001;SDS011;2015;48.670;9.060;2024-03-22T12:30:53;6.20;;;5.70;;
4001;SDS011;2015;48.670;9.060;2024-03-22T12:33:23;7.50;;;6.40;;
4001;SDS011;2015;48.670;9.060;2024-03-22T12:35:54;7.10;;;6.50;;
4001;SDS011;2015;48.670;9.060;2024-03-22T12:38:25;8.93;;;6.40;;
4001;SDS011;2015;48.670;9.060;2024-03-22T12:40:56;6.93;;;6.40;;
4001;SDS011;2015;48.670;9.060;2024-03-22T12:43:27;8.00;;;7.30;;
4001;SDS011;2015;48.670;9.060;2024-03-22T12:45:58;7.90;;;5.93;;
4001;SDS011;2015;48.670;9.060;2024-03-22T12:48:29;7.00;;;6.30;;
4001;SDS011;2015;48.670;9.060;2024-03-22T12:51:00;7.33;;;6.63;;
4001;SDS011;2015;48.670;9.060;2024-03-22T12:53:31;6.47;;;5.87;;
4001;SDS011;2015;48.670;9.060;2024-03-22T12:56:01;6.77;;;6.27;;
4001;SDS011;2015;48.670;9.060;2024-03-22T12:58:34;8.43;;;5.90;;
4001;SDS011;2015;48.670;9.060;2024-03-22T13:01:05;6.33;;;5.50;;
4001;SDS011;2015;48.670;9.060;2024-03-22T13:03:36;6.43;;;5.93;;
4001;SDS011;2015;48.670;9.060;2024-03-22T13:06:10;7.70;;;6.93;;
4001;SDS011;2015;48.670;9.060;2024-03-22T13:08:41;6.73;;;6.13;;
4001;SDS011;2015;48.670;9.060;2024-03-22T13:11:12;11.97;;;6.60;;
4001;SDS011;2015;48.670;9.060;2024-03-22T13:13:44;6.70;;;6.17;;
4001;SDS011;2015;48.670;9.060;2024-03-22T13:16:15;6.37;;;5.87;;
4001;SDS011;2015;48.670;9.060;2024-03-22T13:18:46;7.10;;;5.90;;
4001;SDS011;2015;48.670;9.060;2024-03-22T13:21:17;5.50;;;5.10;;
4001;SDS011;2015;48.670;9.060;2024-03-22T13:23:48;6.00;;;5.40;;
4001;SDS011;2015;48.670;9.060;2024-03-22T13:26:19;7.47;;;6.17;;
4001;SDS011;2015;48.670;9.060;2024-03-22T13:28:50;6.37;;;4.90;;
4001;SDS011;2015;48.670;9.060;2024-03-22T13:31:22;5.30;;;4.60;;
4001;SDS011;2015;48.670;9.060;2024-03-22T13:33:52;6.03;;;5.50;;
4001;SDS011;2015;48.670;9.060;2024-03-22T13:36:23;7.57;;;6.10;;
4001;SDS011;2015;48.670;9.060;2024-03-22T13:38:55;5.77;;;5.27;;
4001;SDS011;2015;48.670;9.060;2024-03-22T13:41:26;4.70;;;4.37;;
4001;SDS011;2015;48.670;9.060;2024-03-22T13:43:58;6.20;;;4.67;;
4001;SDS011;2015;48.670;9.060;2024-03-22T13:46:29;5.63;;;5.13;;
4001;SDS011;2015;48.670;9.060;2024-03-22T13:49:00;5.40;;;4.90;;
4001;SDS011;2015;48.670;9.060;2024-03-22T13:51:31;5.07;;;4.67;;
4001;SDS011;2015;48.670;9.060;2024-03-22T13:54:02;5.37;;;4.80;;
4001;SDS011;2015;48.670;9.060;2024-03-22T13:56:33;4.23;;;3.93;;
4001;SDS011;2015;48.670;9.060;2024-03-22T13:59:04;4.40;;;3.77;;
4001;SDS011;2015;48.670;9.060;2024-03-22T14:01:36;3.43;;;3.07;;
4001;SDS011;2015;48.670;9.060;2024-03-22T14:04:06;4.27;;;3.90;;
4001;SDS011;2015;48.670;9.060;2024-03-22T14:06:38;3.83;;;3.63;;
4001;SDS011;2015;48.670;9.060;2024-03-22T14:09:08;5.53;;;4.70;;
4001;SDS011;2015;48.670;9.060;2024-03-22T14:11:40;3.80;;;3.50;;
4001;SDS011;2015;48.670;9.060;2024-03-22T14:14:13;3.13;;;2.93;;
4001;SDS011;2015;48.670;9.060;2024-03-22T14:16:43;4.03;;;3.63;;
4001;SDS011;2015;48.670;9.060;2024-03-22T14:19:14;5.40;;;3.03;;
4001;SDS011;2015;48.670;9.060;2024-03-22T14:21:46;7.70;;;3.53;;
4001;SDS011;2015;48.670;9.060;2024-03-22T14:24:17;3.50;;;3.20;;
4001;SDS011;2015;48.670;9.060;2024-03-22T14:26:48;3.43;;;3.20;;
4001;SDS011;2015;48.670;9.060;2024-03-22T14:29:18;3.63;;;3.33;;
4001;SDS011;2015;48.670;9.060;2024-03-22T14:31:49;2.70;;;2.50;;
4001;SDS011;2015;48.670;9.060;2024-03-22T14:34:20;4.97;;;2.27;;
4001;SDS011;2015;48.670;9.060;2024-03-22T14:36:51;2.17;;;2.07;;
4001;SDS011;2015;48.670;9.060;2024-03-22T14:39:21;2.83;;;2.33;;
4001;SDS011;2015;48.670;9.060;2024-03-22T14:41:52;2.47;;;2.20;;
4001;SDS011;2015;48.670;9.060;2024-03-22T14:44:23;1.97;;;1.87;;
4001;SDS011;2015;48.670;9.060;2024-03-22T14:46:54;1.73;;;1.63;;
4001;SDS011;2015;48.670;9.060;2024-03-22T14:49:25;1.87;;;1.77;;
4001;SDS011;2015;48.670;9.060;2024-03-22T14:51:56;2.17;;;2.07;;
4001;SDS011;2015;48.670;9.060;2024-03-22T14:54:27;2.10;;;1.90;;
4001;SDS011;2015;48.670;9.060;2024-03-22T14:56:58;3.53;;;1.60;;
4001;SDS011;2015;48.670;9.060;2024-03-22T14:59:29;3.63;;;2.20;;
4001;SDS011;2015;48.670;9.060;2024-03-22T15:02:00;5.13;;;2.17;;
4001;SDS011;2015;48.670;9.060;2024-03-22T15:04:31;2.60;;;2.40;;
4001;SDS011;2015;48.670;9.060;2024-03-22T15:07:02;1.70;;;1.60;;
4001;SDS011;2015;48.670;9.060;2024-03-22T15:09:33;2.80;;;2.10;;
4001;SDS011;2015;48.670;9.060;2024-03-22T15:12:03;2.30;;;2.00;;
4001;SDS011;2015;48.670;9.060;2024-03-22T15:14:35;2.00;;;1.90;;
4001;SDS011;2015;48.670;9.060;2024-03-22T15:17:06;1.90;;;1.80;;
4001;SDS011;2015;48.670;9.060;2024-03-22T15:19:38;2.17;;;2.07;;
4001;SDS011;2015;48.670;9.060;2024-03-22T15:22:09;2.00;;;1.90;;
4001;SDS011;2015;48.670;9.060;2024-03-22T15:24:40;1.90;;;1.80;;
4001;SDS011;2015;48.670;9.060;2024-03-22T15:27:10;4.13;;;2.00;;